Time;durP1;ratioP1;P1;durP2;ratioP2;P2;SDS_P1;SDS_P2;PMS_P1;PMS_P2;Temp;Humidity;BMP_temperature;BMP_pressure;BME280_temperature;BME280_humidity;BME280_pressure;Samples;Min_cycle;Max_cycle;Signal;HPM_P1;HPM_P2
2021/09/07 00:00:56;;;;;;;21.73;13.37;;;15.80;99.90;;;;;;5071733;28;20216;-60
2021/09/07 00:03:23;;;;;;;18.93;14.03;;;15.80;99.90;;;;;;5071959;28;20702;-60
2021/09/07 00:05:49;;;;;;;22.30;13.13;;;15.80;99.90;;;;;;5071854;28;20212;-59
2021/09/07 00:08:17;;;;;;;19.17;13.53;;;15.80;99.90;;;;;;5071874;28;20645;-60
2021/09/07 00:10:44;;;;;;;20.40;13.83;;;15.70;1.00;;;;;;5071762;28;20262;-60
2021/09/07 00:13:11;;;;;;;24.43;13.13;;;15.70;1.00;;;;;;5071638;28;20791;-60
2021/09/07 00:15:37;;;;;;;23.53;13.70;;;15.60;1.00;;;;;;5071356;28;20209;-59
2021/09/07 00:18:04;;;;;;;20.53;14.83;;;15.60;61.80;;;;;;5071969;28;20227;-60
2021/09/07 00:20:31;;;;;;;20.77;14.37;;;15.60;99.90;;;;;;5071714;28;20270;-60
2021/09/07 00:22:57;;;;;;;22.40;14.90;;;15.60;99.90;;;;;;5071600;28;20572;-60
2021/09/07 00:25:25;;;;;;;21.87;14.60;;;15.50;99.90;;;;;;5071298;28;20666;-60
2021/09/07 00:27:52;;;;;;;22.30;15.17;;;15.40;1.00;;;;;;5071465;28;20294;-60
2021/09/07 00:30:18;;;;;;;24.27;15.13;;;15.40;1.00;;;;;;5071390;28;20209;-60
2021/09/07 00:32:45;;;;;;;22.77;15.33;;;15.40;1.00;;;;;;5071621;28;20209;-60
2021/09/07 00:35:12;;;;;;;20.70;14.37;;;15.40;90.10;;;;;;5071431;28;20208;-59
2021/09/07 00:37:39;;;;;;;20.63;13.93;;;15.30;99.90;;;;;;5071347;28;20212;-60
2021/09/07 00:40:08;;;;;;;21.27;14.40;;;15.30;99.90;;;;;;5071523;28;20265;-59
2021/09/07 00:42:37;;;;;;;21.37;14.73;;;15.30;99.90;;;;;;5071196;28;20209;-58
2021/09/07 00:45:04;;;;;;;22.23;14.90;;;15.30;1.00;;;;;;5071493;28;20232;-60
2021/09/07 00:47:31;;;;;;;21.50;14.33;;;15.30;1.00;;;;;;5071482;28;20229;-60
2021/09/07 00:49:58;;;;;;;20.73;15.17;;;15.20;49.60;;;;;;5071479;28;20212;-60
2021/09/07 00:52:25;;;;;;;24.63;14.60;;;15.20;99.90;;;;;;5071211;28;20201;-59
2021/09/07 00:54:52;;;;;;;26.57;16.30;;;15.20;99.90;;;;;;5071098;28;20274;-58
2021/09/07 00:57:20;;;;;;;25.73;16.17;;;15.20;1.00;;;;;;5071173;28;20197;-59
2021/09/07 00:59:48;;;;;;;24.07;15.73;;;15.20;99.90;;;;;;5071476;28;20212;-59
2021/09/07 01:02:15;;;;;;;23.57;15.43;;;15.20;99.90;;;;;;5073187;28;20624;-56
2021/09/07 01:04:42;;;;;;;24.10;16.23;;;15.20;99.90;;;;;;5074571;28;20225;-58
2021/09/07 01:07:09;;;;;;;25.23;16.00;;;15.20;99.90;;;;;;5074469;28;20759;-59
2021/09/07 01:09:36;;;;;;;23.53;16.43;;;15.20;1.00;;;;;;5073263;28;20555;-60
2021/09/07 01:12:03;;;;;;;25.13;16.77;;;15.20;1.00;;;;;;5074511;28;20213;-60
2021/09/07 01:14:32;;;;;;;22.67;15.60;;;15.20;99.90;;;;;;5073831;28;20221;-59
2021/09/07 01:23:45;;;;;;;25.23;16.73;;;15.20;1.00;;;;;;5070547;28;20746;-59
2021/09/07 01:26:17;;;;;;;23.57;17.03;;;15.10;99.90;;;;;;5074071;28;20197;-58
2021/09/07 01:28:45;;;;;;;22.77;15.93;;;15.10;99.90;;;;;;5074388;28;20228;-59
2021/09/07 01:31:12;;;;;;;25.03;17.47;;;15.10;99.90;;;;;;5074367;28;20205;-59
2021/09/07 01:33:40;;;;;;;24.43;15.97;;;15.10;99.90;;;;;;5073869;28;20224;-57
2021/09/07 01:36:07;;;;;;;22.17;15.97;;;15.10;99.90;;;;;;5073914;28;20201;-60
2021/09/07 01:38:35;;;;;;;26.63;17.37;;;15.10;99.90;;;;;;5074238;28;20254;-59
2021/09/07 01:41:03;;;;;;;27.80;16.43;;;15.10;99.90;;;;;;5074873;28;20208;-60
2021/09/07 01:43:31;;;;;;;26.67;17.27;;;15.00;99.90;;;;;;5074194;28;20697;-60
2021/09/07 01:45:57;;;;;;;24.07;16.77;;;15.00;1.00;;;;;;5074165;28;20204;-60
2021/09/07 01:48:25;;;;;;;24.60;16.97;;;15.00;1.00;;;;;;5073712;28;20636;-60
2021/09/07 01:50:53;;;;;;;25.90;17.70;;;15.00;99.90;;;;;;5073615;28;20290;-61
2021/09/07 01:53:20;;;;;;;24.33;16.57;;;15.00;99.90;;;;;;5073661;28;20231;-60
2021/09/07 01:55:46;;;;;;;26.70;17.43;;;14.90;1.00;;;;;;5073624;28;20647;-61
2021/09/07 01:58:13;;;;;;;26.43;18.20;;;14.90;1.00;;;;;;5073551;28;20212;-60
2021/09/07 02:00:41;;;;;;;25.50;17.07;;;14.90;52.30;;;;;;5073783;28;20251;-61
2021/09/07 02:03:08;;;;;;;26.27;17.27;;;14.90;99.90;;;;;;5073214;28;20225;-61
2021/09/07 02:05:34;;;;;;;26.73;16.87;;;14.90;99.90;;;;;;5073080;28;20556;-61
2021/09/07 02:08:01;;;;;;;24.63;16.33;;;14.90;1.00;;;;;;5073070;28;20759;-61
2021/09/07 02:10:28;;;;;;;26.93;17.13;;;14.90;1.00;;;;;;5073323;28;20205;-61
2021/09/07 02:12:55;;;;;;;24.27;16.67;;;14.90;1.00;;;;;;5073236;28;20262;-61
2021/09/07 02:15:21;;;;;;;24.73;16.43;;;14.90;1.00;;;;;;5073294;28;20322;-61
2021/09/07 02:17:49;;;;;;;22.17;16.00;;;14.90;1.00;;;;;;5073317;28;20680;-61
2021/09/07 02:20:16;;;;;;;21.67;15.40;;;14.80;1.00;;;;;;5073809;28;20216;-61
2021/09/07 02:22:43;;;;;;;23.80;16.07;;;14.80;1.00;;;;;;5073290;28;20209;-59
2021/09/07 02:25:11;;;;;;;21.40;15.07;;;14.80;1.00;;;;;;5072953;28;20209;-61
2021/09/07 02:27:37;;;;;;;22.87;15.77;;;14.80;1.00;;;;;;5073352;28;20631;-61
2021/09/07 02:30:07;;;;;;;22.47;16.13;;;14.70;1.00;;;;;;5073093;28;20559;-60
2021/09/07 02:32:33;;;;;;;23.37;15.90;;;14.80;1.00;;;;;;5072967;28;20209;-61
2021/09/07 02:35:02;;;;;;;24.90;15.60;;;14.80;1.00;;;;;;5072962;28;20286;-61
2021/09/07 02:37:28;;;;;;;23.23;16.23;;;14.70;1.00;;;;;;5072939;28;20209;-62
2021/09/07 02:39:55;;;;;;;26.33;16.70;;;14.70;3.30;;;;;;5073115;28;20209;-61
2021/09/07 02:42:22;;;;;;;22.13;16.00;;;14.70;13.80;;;;;;5073072;28;20209;-61
2021/09/07 02:44:49;;;;;;;22.73;16.23;;;14.70;99.90;;;;;;5072497;28;20293;-61
2021/09/07 02:47:15;;;;;;;26.53;16.80;;;14.80;99.90;;;;;;5072863;28;20854;-61
2021/09/07 02:49:42;;;;;;;25.87;17.63;;;14.80;99.90;;;;;;5072873;28;20562;-62
2021/09/07 02:52:10;;;;;;;27.03;16.63;;;14.80;99.90;;;;;;5072703;28;20209;-61
2021/09/07 02:54:36;;;;;;;21.60;16.33;;;14.80;99.90;;;;;;5072489;28;20229;-61
2021/09/07 02:57:04;;;;;;;25.87;17.63;;;14.80;99.90;;;;;;5072492;28;20674;-60
2021/09/07 02:59:30;;;;;;;29.23;18.40;;;14.80;99.90;;;;;;5072498;28;20208;-61
2021/09/07 03:01:57;;;;;;;27.10;18.20;;;14.80;1.00;;;;;;5072622;28;20209;-61
2021/09/07 03:04:24;;;;;;;25.70;18.17;;;14.80;1.00;;;;;;5072467;28;20287;-61
2021/09/07 03:06:50;;;;;;;29.00;16.93;;;14.80;1.00;;;;;;5072514;28;20262;-61
2021/09/07 03:09:18;;;;;;;23.23;16.27;;;14.80;1.00;;;;;;5072349;28;20229;-61
2021/09/07 03:11:45;;;;;;;23.43;16.03;;;14.80;1.00;;;;;;5072332;28;20212;-61
2021/09/07 03:14:12;;;;;;;23.77;16.47;;;14.80;1.00;;;;;;5072012;28;20266;-61
2021/09/07 03:16:38;;;;;;;23.43;15.37;;;14.90;1.00;;;;;;5072511;28;20204;-61
2021/09/07 03:19:05;;;;;;;27.67;17.83;;;14.90;1.00;;;;;;5072471;28;20625;-61
2021/09/07 03:21:32;;;;;;;23.27;16.67;;;14.80;1.00;;;;;;5072421;28;20208;-61
2021/09/07 03:23:59;;;;;;;25.57;16.50;;;14.90;1.00;;;;;;5071420;28;20251;-62
2021/09/07 03:26:27;;;;;;;27.30;18.47;;;14.90;1.00;;;;;;5072079;28;20254;-61
2021/09/07 03:28:53;;;;;;;26.20;17.00;;;14.90;1.00;;;;;;5072232;28;20228;-61
2021/09/07 03:31:20;;;;;;;22.83;16.43;;;14.90;1.00;;;;;;5072342;28;20209;-62
2021/09/07 03:33:47;;;;;;;22.33;15.70;;;14.90;1.00;;;;;;5071837;28;20229;-61
2021/09/07 03:36:13;;;;;;;25.93;17.27;;;15.00;1.00;;;;;;5072027;28;20216;-61
2021/09/07 03:38:40;;;;;;;25.87;16.33;;;14.90;1.00;;;;;;5071945;28;20693;-61
2021/09/07 03:41:06;;;;;;;24.90;17.00;;;15.00;1.00;;;;;;5072011;28;20201;-60
2021/09/07 03:43:34;;;;;;;24.50;15.50;;;15.00;1.00;;;;;;5071682;28;20278;-61
2021/09/07 03:46:01;;;;;;;26.93;15.53;;;15.10;1.00;;;;;;5072020;28;20282;-60
2021/09/07 03:48:28;;;;;;;27.37;17.03;;;15.10;1.00;;;;;;5071985;28;20697;-61
2021/09/07 03:50:54;;;;;;;25.47;16.90;;;15.10;1.00;;;;;;5071902;28;20277;-61
2021/09/07 03:53:21;;;;;;;25.23;16.90;;;15.10;1.00;;;;;;5071696;28;20571;-61
2021/09/07 03:55:48;;;;;;;21.67;15.77;;;15.10;1.00;;;;;;5071368;28;20204;-61
2021/09/07 03:58:14;;;;;;;24.53;15.53;;;15.10;1.00;;;;;;5072026;28;20213;-61
2021/09/07 04:00:43;;;;;;;21.40;14.80;;;15.10;6.40;;;;;;5071962;28;20212;-61
2021/09/07 04:03:14;;;;;;;21.87;15.03;;;15.10;16.70;;;;;;5071751;28;20225;-61
2021/09/07 04:05:40;;;;;;;22.10;15.27;;;15.10;29.30;;;;;;5071728;28;20589;-61
2021/09/07 04:08:07;;;;;;;24.53;15.10;;;15.20;37.00;;;;;;5071898;28;20221;-59
2021/09/07 04:10:34;;;;;;;23.10;15.13;;;15.20;1.00;;;;;;5071741;28;20212;-60
2021/09/07 04:13:00;;;;;;;23.73;15.73;;;15.20;1.00;;;;;;5072045;28;20271;-60
2021/09/07 04:15:27;;;;;;;22.07;14.60;;;15.20;1.00;;;;;;5071946;28;20205;-60
2021/09/07 04:17:55;;;;;;;23.53;16.07;;;15.20;1.00;;;;;;5069309;28;20263;-61
2021/09/07 04:20:22;;;;;;;25.47;16.23;;;15.20;1.00;;;;;;5071848;28;20208;-61
2021/09/07 04:22:49;;;;;;;27.03;16.30;;;15.20;1.00;;;;;;5071379;28;20209;-60
2021/09/07 04:25:16;;;;;;;26.00;15.97;;;15.30;1.00;;;;;;5071572;28;20254;-61
2021/09/07 04:27:42;;;;;;;23.67;16.10;;;15.20;1.00;;;;;;5071623;28;20254;-61
2021/09/07 04:30:11;;;;;;;24.10;15.43;;;15.20;1.00;;;;;;5071671;28;20774;-60
2021/09/07 04:32:38;;;;;;;21.70;15.27;;;15.20;1.00;;;;;;5071432;28;20201;-61
2021/09/07 04:35:08;;;;;;;22.27;16.20;;;15.20;1.00;;;;;;5071208;28;20727;-61
2021/09/07 04:37:35;;;;;;;23.67;16.07;;;15.10;59.40;;;;;;5073652;28;20213;-61
2021/09/07 04:40:01;;;;;;;26.43;16.17;;;15.10;99.90;;;;;;5075243;28;20689;-62
2021/09/07 04:42:28;;;;;;;24.63;16.27;;;15.00;99.90;;;;;;5072675;28;20646;-60
2021/09/07 04:44:54;;;;;;;24.00;14.70;;;15.10;99.90;;;;;;5074821;28;20357;-61
2021/09/07 04:47:21;;;;;;;24.80;17.00;;;15.10;99.90;;;;;;5075035;28;20201;-60
2021/09/07 04:49:48;;;;;;;24.43;17.43;;;15.10;99.90;;;;;;5074758;28;20251;-61
2021/09/07 04:52:16;;;;;;;24.73;16.63;;;15.10;99.90;;;;;;5074709;28;20204;-61
2021/09/07 04:54:42;;;;;;;24.43;16.97;;;15.20;99.90;;;;;;5074660;28;20221;-61
2021/09/07 04:57:09;;;;;;;26.70;17.97;;;15.20;99.90;;;;;;5075151;28;20205;-61
2021/09/07 04:59:36;;;;;;;28.60;17.97;;;15.20;99.90;;;;;;5074839;28;20205;-61
2021/09/07 05:02:02;;;;;;;27.93;18.13;;;15.20;99.90;;;;;;5074622;28;20623;-62
2021/09/07 05:04:29;;;;;;;30.00;18.30;;;15.20;99.90;;;;;;5074175;28;20229;-62
2021/09/07 05:06:56;;;;;;;26.47;17.37;;;15.20;99.90;;;;;;5074984;28;20266;-61
2021/09/07 05:09:24;;;;;;;23.37;17.30;;;15.20;99.90;;;;;;5074668;28;20645;-62
2021/09/07 05:11:50;;;;;;;21.93;16.47;;;15.30;99.90;;;;;;5074772;28;20645;-61
2021/09/07 05:14:17;;;;;;;24.67;15.57;;;15.30;99.90;;;;;;5074411;28;20766;-61
2021/09/07 05:16:43;;;;;;;22.30;16.03;;;15.30;99.90;;;;;;5074432;28;20205;-61
2021/09/07 05:19:10;;;;;;;24.47;16.47;;;15.40;95.30;;;;;;5074394;28;20251;-61
2021/09/07 05:21:37;;;;;;;21.73;15.47;;;15.40;50.80;;;;;;5074576;28;20286;-62
2021/09/07 05:24:04;;;;;;;22.57;15.77;;;15.50;16.50;;;;;;5074100;28;20717;-61
2021/09/07 05:26:32;;;;;;;23.80;16.60;;;15.50;1.00;;;;;;5074407;28;20205;-65
2021/09/07 05:28:58;;;;;;;22.10;15.57;;;15.50;1.00;;;;;;5072995;28;20216;-60
2021/09/07 05:31:25;;;;;;;22.70;15.43;;;15.60;1.00;;;;;;5074089;28;20201;-63
2021/09/07 05:33:52;;;;;;;23.47;16.07;;;15.60;1.00;;;;;;5073982;28;20286;-58
2021/09/07 05:36:18;;;;;;;22.37;16.17;;;15.60;99.90;;;;;;5074607;28;20205;-60
2021/09/07 05:38:45;;;;;;;21.73;15.40;;;15.70;99.90;;;;;;5074692;28;20254;-60
2021/09/07 05:41:12;;;;;;;21.47;15.57;;;15.70;48.40;;;;;;5074506;28;20205;-59
2021/09/07 05:43:40;;;;;;;23.53;15.20;;;15.80;1.00;;;;;;5074301;28;20237;-61
2021/09/07 05:46:07;;;;;;;23.97;15.87;;;15.80;99.90;;;;;;5074123;28;20209;-62
2021/09/07 05:48:33;;;;;;;22.67;15.37;;;15.80;99.90;;;;;;5073243;28;20773;-61
2021/09/07 05:51:00;;;;;;;21.40;15.07;;;15.80;1.00;;;;;;5073872;28;20208;-61
2021/09/07 05:53:27;;;;;;;24.77;14.03;;;15.90;1.00;;;;;;5069827;28;20225;-62
2021/09/07 05:55:53;;;;;;;21.27;15.53;;;16.00;1.00;;;;;;5072690;28;20605;-62
2021/09/07 05:58:20;;;;;;;22.17;15.27;;;16.10;99.90;;;;;;5073421;28;20208;-61
2021/09/07 06:00:48;;;;;;;23.27;14.80;;;16.10;1.00;;;;;;5073051;28;20209;-61
2021/09/07 06:03:15;;;;;;;20.10;13.90;;;16.20;99.90;;;;;;5073419;28;20592;-61
2021/09/07 06:05:41;;;;;;;21.67;15.10;;;16.20;99.90;;;;;;5072744;28;20216;-61
2021/09/07 06:08:08;;;;;;;24.83;15.50;;;16.30;99.90;;;;;;5073244;28;20296;-62
2021/09/07 06:10:36;;;;;;;20.40;14.73;;;16.30;99.90;;;;;;5072136;28;20255;-61
2021/09/07 06:13:05;;;;;;;21.03;14.53;;;16.30;1.00;;;;;;5073073;28;20225;-61
2021/09/07 06:15:32;;;;;;;21.27;15.50;;;16.40;99.90;;;;;;5072351;28;20212;-61
2021/09/07 06:18:00;;;;;;;22.80;15.80;;;16.50;99.90;;;;;;5073204;28;20205;-61
2021/09/07 06:20:26;;;;;;;22.83;15.77;;;16.60;1.00;;;;;;5073109;28;20220;-61
2021/09/07 06:22:53;;;;;;;24.83;15.80;;;16.60;99.90;;;;;;5072872;28;20209;-61
2021/09/07 06:25:20;;;;;;;19.93;14.43;;;16.70;74.80;;;;;;5072610;28;20208;-61
2021/09/07 06:27:47;;;;;;;24.17;14.87;;;16.70;99.90;;;;;;5072538;28;20258;-61
2021/09/07 06:30:14;;;;;;;20.07;13.53;;;16.80;99.90;;;;;;5072894;28;20236;-60
2021/09/07 06:32:41;;;;;;;24.60;15.63;;;16.80;1.00;;;;;;5072649;28;20659;-61
2021/09/07 06:35:10;;;;;;;18.53;14.57;;;16.90;1.00;;;;;;5072458;28;20209;-65
2021/09/07 06:37:37;;;;;;;18.37;14.00;;;16.90;1.00;;;;;;5072316;28;20248;-64
2021/09/07 06:40:05;;;;;;;22.23;14.77;;;17.00;99.90;;;;;;5072554;28;20211;-63
2021/09/07 06:42:32;;;;;;;20.97;13.33;;;17.20;1.00;;;;;;5072258;28;20673;-64
2021/09/07 06:44:59;;;;;;;19.30;13.93;;;17.30;27.70;;;;;;5072007;28;20228;-61
2021/09/07 06:47:26;;;;;;;21.87;13.93;;;17.40;99.90;;;;;;5072714;28;20209;-60
2021/09/07 06:49:52;;;;;;;22.50;13.00;;;17.50;99.90;;;;;;5072446;28;20225;-63
2021/09/07 06:52:21;;;;;;;19.70;13.27;;;17.50;1.00;;;;;;5072401;28;20204;-64
2021/09/07 06:54:48;;;;;;;25.20;14.87;;;17.60;99.90;;;;;;5071641;28;20271;-64
2021/09/07 06:57:14;;;;;;;19.77;14.50;;;17.60;99.90;;;;;;5072340;28;20220;-63
2021/09/07 06:59:41;;;;;;;19.33;13.90;;;17.70;1.00;;;;;;5071501;28;20196;-62
2021/09/07 07:02:08;;;;;;;20.23;14.90;;;17.80;99.90;;;;;;5072238;28;20201;-62
2021/09/07 07:04:34;;;;;;;21.07;14.20;;;17.90;99.90;;;;;;5071688;28;20228;-62
2021/09/07 07:07:01;;;;;;;18.43;13.43;;;18.00;99.90;;;;;;5072064;28;20213;-63
2021/09/07 07:09:29;;;;;;;21.00;14.37;;;18.20;99.90;;;;;;5071771;28;20286;-62
2021/09/07 07:11:56;;;;;;;21.27;14.63;;;18.40;99.90;;;;;;5071882;28;20262;-62
2021/09/07 07:14:22;;;;;;;23.20;14.10;;;18.50;57.20;;;;;;5071583;28;20233;-62
2021/09/07 07:16:49;;;;;;;27.67;14.60;;;18.60;99.90;;;;;;5072097;28;20627;-62
2021/09/07 07:19:16;;;;;;;22.37;13.97;;;18.60;99.90;;;;;;5071722;28;20742;-62
2021/09/07 07:21:43;;;;;;;23.07;13.97;;;18.50;99.90;;;;;;5071866;28;20215;-62
2021/09/07 07:24:09;;;;;;;21.17;13.40;;;18.60;99.90;;;;;;5070991;28;20977;-63
2021/09/07 07:26:37;;;;;;;22.10;13.50;;;18.60;1.00;;;;;;5072030;28;20204;-63
2021/09/07 07:29:04;;;;;;;32.93;14.47;;;18.70;99.90;;;;;;5071720;28;20208;-64
2021/09/07 07:31:31;;;;;;;26.07;12.57;;;18.80;99.90;;;;;;5071855;28;20270;-63
2021/09/07 07:33:57;;;;;;;21.90;13.47;;;18.90;99.90;;;;;;5071593;28;20281;-63
2021/09/07 07:36:24;;;;;;;18.93;12.33;;;19.00;99.90;;;;;;5072169;28;20213;-64
2021/09/07 07:38:51;;;;;;;19.60;13.23;;;19.10;99.90;;;;;;5071733;28;20220;-64
2021/09/07 07:41:17;;;;;;;20.67;13.47;;;19.10;99.90;;;;;;5071987;28;20273;-64
2021/09/07 07:43:46;;;;;;;22.60;13.47;;;19.20;99.90;;;;;;5071301;28;20247;-65
2021/09/07 07:46:13;;;;;;;16.97;12.10;;;19.00;99.90;;;;;;5071338;28;20673;-64
2021/09/07 07:48:41;;;;;;;24.00;13.60;;;19.10;99.90;;;;;;5071783;28;20208;-64
2021/09/07 07:51:08;;;;;;;20.67;12.20;;;19.10;89.90;;;;;;5071275;28;20321;-64
2021/09/07 07:53:35;;;;;;;18.73;12.87;;;19.20;59.50;;;;;;5071232;28;20319;-63
2021/09/07 07:56:01;;;;;;;20.00;12.70;;;19.40;40.80;;;;;;5071710;28;20213;-63
2021/09/07 07:58:28;;;;;;;18.50;12.70;;;19.50;1.00;;;;;;5071504;28;20615;-64
2021/09/07 08:00:56;;;;;;;22.13;13.77;;;19.50;1.00;;;;;;5071608;28;20210;-64
2021/09/07 08:03:23;;;;;;;19.70;13.40;;;19.60;1.00;;;;;;5071295;28;20596;-65
2021/09/07 08:05:50;;;;;;;17.33;12.73;;;19.70;1.00;;;;;;5071024;28;20677;-64
2021/09/07 08:08:16;;;;;;;19.47;13.20;;;19.80;1.00;;;;;;5071520;28;20209;-66
2021/09/07 08:10:43;;;;;;;21.50;12.77;;;19.90;1.00;;;;;;5072465;28;20282;-64
2021/09/07 08:13:10;;;;;;;17.60;11.80;;;20.00;1.00;;;;;;5075499;28;20225;-64
2021/09/07 08:15:36;;;;;;;18.73;13.10;;;20.10;1.00;;;;;;5075040;28;20208;-64
2021/09/07 08:18:04;;;;;;;17.97;13.20;;;20.20;1.00;;;;;;5075506;28;20205;-64
2021/09/07 08:20:31;;;;;;;19.07;12.60;;;20.20;1.00;;;;;;5074943;28;20204;-64
2021/09/07 08:22:58;;;;;;;18.73;13.27;;;20.20;1.00;;;;;;5075306;28;20668;-64
2021/09/07 08:25:25;;;;;;;22.50;14.17;;;20.30;1.00;;;;;;5074646;28;20887;-64
2021/09/07 08:27:52;;;;;;;18.80;13.33;;;20.40;1.00;;;;;;5075069;28;20616;-64
2021/09/07 08:30:19;;;;;;;21.50;14.57;;;20.50;1.00;;;;;;5074984;28;20225;-65
2021/09/07 08:32:46;;;;;;;17.27;12.73;;;20.60;1.00;;;;;;5074753;28;20212;-65
2021/09/07 08:35:15;;;;;;;26.90;16.47;;;20.70;1.00;;;;;;5074349;28;20270;-65
2021/09/07 08:37:43;;;;;;;23.23;14.37;;;20.80;1.00;;;;;;5074803;28;20227;-65
2021/09/07 08:40:11;;;;;;;20.27;13.30;;;20.90;1.00;;;;;;5074858;28;20297;-65
2021/09/07 08:42:38;;;;;;;24.77;13.20;;;21.00;1.00;;;;;;5074859;28;20209;-64
2021/09/07 08:45:07;;;;;;;23.47;13.90;;;21.00;1.00;;;;;;5074322;28;20648;-65
2021/09/07 08:47:34;;;;;;;21.20;12.83;;;21.00;1.00;;;;;;5074507;28;20201;-64
2021/09/07 08:50:02;;;;;;;23.47;13.10;;;21.00;1.00;;;;;;5074822;28;20290;-64
2021/09/07 08:52:30;;;;;;;17.20;11.60;;;20.90;1.00;;;;;;5075041;28;20254;-64
2021/09/07 08:54:57;;;;;;;21.30;13.00;;;21.10;1.00;;;;;;5074029;28;20278;-64
2021/09/07 08:57:24;;;;;;;19.17;12.60;;;21.20;1.00;;;;;;5074581;28;20250;-65
2021/09/07 08:59:58;;;;;;;18.97;13.00;;;21.10;1.00;;;;;;5074458;28;20197;-66
2021/09/07 09:02:27;;;;;;;19.00;11.83;;;21.20;1.00;;;;;;5074890;28;20258;-65
2021/09/07 09:04:55;;;;;;;16.30;11.90;;;21.20;99.90;;;;;;5074500;28;20229;-65
2021/09/07 09:07:23;;;;;;;19.23;12.17;;;21.30;1.00;;;;;;5074865;28;20219;-64
2021/09/07 09:09:52;;;;;;;16.63;10.87;;;21.30;99.90;;;;;;5074240;28;20221;-65
2021/09/07 09:12:29;;;;;;;17.23;10.87;;;21.30;99.90;;;;;;5074116;28;20201;-65
2021/09/07 09:14:56;;;;;;;19.70;10.67;;;21.40;99.90;;;;;;5073832;28;20232;-66
2021/09/07 09:17:28;;;;;;;13.00;9.63;;;21.60;99.90;;;;;;5074251;28;20300;-65
2021/09/07 09:19:58;;;;;;;14.13;10.27;;;21.70;99.90;;;;;;5074450;28;20271;-62
2021/09/07 09:22:43;;;;;;;16.10;10.33;;;21.80;99.90;;;;;;5073162;28;20255;-62
2021/09/07 09:25:25;;;;;;;14.50;8.97;;;22.00;99.90;;;;;;5073422;28;20197;-63
2021/09/07 09:28:10;;;;;;;16.60;9.10;;;22.00;99.90;;;;;;5074137;28;20200;-64
2021/09/07 09:30:39;;;;;;;13.07;9.47;;;22.00;99.90;;;;;;5073934;28;20239;-63
2021/09/07 09:33:06;;;;;;;11.17;8.47;;;22.10;99.90;;;;;;5073676;28;20229;-64
2021/09/07 09:35:44;;;;;;;14.17;9.23;;;22.10;99.90;;;;;;5073473;28;20213;-64
2021/09/07 09:38:11;;;;;;;13.47;9.43;;;22.10;99.90;;;;;;5073933;28;20235;-64
2021/09/07 09:40:39;;;;;;;14.00;9.70;;;22.10;99.90;;;;;;5073889;28;20201;-65
2021/09/07 09:43:22;;;;;;;13.97;10.07;;;22.20;99.90;;;;;;5073894;28;20221;-64
2021/09/07 09:45:49;;;;;;;16.40;10.13;;;22.30;99.90;;;;;;5073060;28;20205;-64
2021/09/07 09:48:22;;;;;;;16.00;10.73;;;22.40;99.90;;;;;;5073751;28;20283;-63
2021/09/07 09:50:50;;;;;;;15.57;10.63;;;22.50;99.90;;;;;;5073631;28;20315;-63
2021/09/07 09:53:19;;;;;;;13.77;10.17;;;22.60;99.90;;;;;;5073479;28;20221;-63
2021/09/07 09:55:48;;;;;;;15.87;10.63;;;22.70;99.90;;;;;;5072956;28;20933;-63
2021/09/07 09:58:16;;;;;;;18.13;12.27;;;22.60;99.90;;;;;;5073208;28;20300;-63
2021/09/07 10:00:44;;;;;;;19.13;12.27;;;22.60;99.90;;;;;;5073697;28;20229;-63
2021/09/07 10:03:12;;;;;;;14.83;11.03;;;22.60;99.90;;;;;;5073065;28;20313;-63
2021/09/07 10:05:40;;;;;;;15.63;10.17;;;22.50;99.90;;;;;;5073052;28;20209;-63
2021/09/07 10:08:07;;;;;;;15.03;9.73;;;22.40;99.90;;;;;;5073222;28;20205;-63
2021/09/07 10:10:36;;;;;;;13.37;8.90;;;22.50;99.90;;;;;;5072992;28;20225;-66
2021/09/07 10:13:04;;;;;;;14.53;9.10;;;22.40;99.90;;;;;;5072970;28;20705;-66
2021/09/07 10:15:35;;;;;;;14.13;8.60;;;22.50;99.90;;;;;;5072909;28;20279;-65
2021/09/07 10:18:33;;;;;;;14.53;9.67;;;22.70;99.90;;;;;;5073177;28;20286;-62
2021/09/07 10:21:10;;;;;;;14.00;9.77;;;22.70;99.90;;;;;;5073101;28;20205;-62
2021/09/07 10:23:58;;;;;;;12.10;8.87;;;22.70;99.90;;;;;;5072576;28;20233;-64
2021/09/07 10:26:53;;;;;;;16.57;9.57;;;22.60;99.90;;;;;;5072981;28;20201;-62
2021/09/07 10:29:41;;;;;;;15.50;10.03;;;22.40;99.90;;;;;;5072829;28;20727;-62
2021/09/07 10:32:32;;;;;;;15.00;10.23;;;22.40;99.90;;;;;;5072913;28;20239;-62
2021/09/07 10:35:17;;;;;;;14.27;9.70;;;22.50;99.90;;;;;;5072151;28;20287;-62
2021/09/07 10:38:07;;;;;;;14.30;9.53;;;22.80;99.90;;;;;;5072442;28;20571;-63
2021/09/07 10:40:46;;;;;;;12.90;9.43;;;22.80;99.90;;;;;;5072242;28;20205;-65
2021/09/07 10:43:13;;;;;;;13.87;9.30;;;22.80;99.90;;;;;;5072573;28;20228;-64
2021/09/07 10:45:41;;;;;;;16.10;9.83;;;22.90;99.90;;;;;;5072154;28;20304;-64
2021/09/07 10:48:30;;;;;;;15.73;9.97;;;23.00;99.90;;;;;;5072408;28;20263;-64
2021/09/07 10:51:03;;;;;;;16.93;10.10;;;23.00;99.90;;;;;;5068036;28;20311;-64
2021/09/07 10:53:29;;;;;;;16.03;10.37;;;23.00;99.90;;;;;;5071836;28;20228;-65
2021/09/07 10:56:26;;;;;;;13.43;10.63;;;22.90;99.90;;;;;;5072152;28;20209;-63
2021/09/07 10:58:53;;;;;;;17.80;10.30;;;22.90;99.90;;;;;;5071978;28;20205;-63
2021/09/07 11:01:29;;;;;;;14.73;9.60;;;23.00;99.90;;;;;;5072309;28;20197;-64
2021/09/07 11:04:31;;;;;;;18.93;10.33;;;23.00;99.90;;;;;;5071838;28;20228;-64
2021/09/07 11:06:57;;;;;;;14.40;10.27;;;23.10;99.90;;;;;;5071969;28;20204;-65
2021/09/07 11:09:51;;;;;;;16.83;10.67;;;23.10;99.90;;;;;;5071837;28;20220;-65
2021/09/07 11:12:28;;;;;;;13.70;10.10;;;23.20;99.90;;;;;;5071966;28;20225;-66
2021/09/07 11:15:07;;;;;;;14.50;10.67;;;23.30;99.90;;;;;;5071487;28;20311;-66
2021/09/07 11:17:35;;;;;;;16.30;11.00;;;23.30;99.90;;;;;;5071862;28;20215;-65
2021/09/07 11:20:06;;;;;;;15.97;10.53;;;23.30;99.90;;;;;;5072169;28;20208;-65
2021/09/07 11:22:33;;;;;;;15.30;10.13;;;23.40;99.90;;;;;;5071810;28;20692;-66
2021/09/07 11:25:09;;;;;;;13.80;10.30;;;23.30;99.90;;;;;;5071296;28;20228;-63
2021/09/07 11:27:49;;;;;;;15.43;10.63;;;23.50;99.90;;;;;;5071933;28;20726;-64
2021/09/07 11:30:34;;;;;;;15.63;11.00;;;23.60;99.90;;;;;;5071861;28;20212;-63
2021/09/07 11:33:05;;;;;;;13.63;9.67;;;23.60;99.90;;;;;;5071695;28;20209;-64
2021/09/07 11:35:35;;;;;;;14.10;9.43;;;23.50;99.90;;;;;;5071432;28;20211;-64
2021/09/07 11:38:04;;;;;;;13.40;9.50;;;23.50;99.90;;;;;;5071815;28;20635;-66
2021/09/07 11:40:32;;;;;;;17.17;9.77;;;23.60;99.90;;;;;;5071878;28;20247;-64
2021/09/07 11:42:59;;;;;;;15.60;9.97;;;23.70;99.90;;;;;;5072298;28;20200;-64
2021/09/07 11:45:28;;;;;;;14.80;9.47;;;23.80;99.90;;;;;;5070937;28;20204;-63
2021/09/07 11:47:56;;;;;;;14.00;9.67;;;23.90;99.90;;;;;;5072088;28;20205;-63
2021/09/07 11:50:27;;;;;;;14.27;9.83;;;23.80;99.90;;;;;;5071764;28;20251;-67
2021/09/07 11:52:54;;;;;;;15.23;9.37;;;23.70;99.90;;;;;;5071490;28;20240;-65
2021/09/07 11:55:52;;;;;;;16.40;9.50;;;23.60;99.90;;;;;;5071125;28;20638;-64
2021/09/07 11:58:28;;;;;;;13.13;9.17;;;23.70;99.90;;;;;;5009432;28;20207;-65
2021/09/07 12:00:59;;;;;;;13.47;9.83;;;23.70;99.90;;;;;;5061257;28;20209;-65
2021/09/07 12:03:35;;;;;;;15.37;9.83;;;23.90;99.90;;;;;;5070893;28;20224;-64
2021/09/07 12:06:04;;;;;;;11.70;9.10;;;24.00;99.90;;;;;;5071534;28;20581;-64
2021/09/07 12:08:39;;;;;;;14.97;9.80;;;23.80;99.90;;;;;;5071469;28;20211;-64
2021/09/07 12:11:07;;;;;;;12.80;9.33;;;23.90;99.90;;;;;;5071499;28;20220;-65
2021/09/07 12:13:34;;;;;;;14.20;9.23;;;23.90;99.90;;;;;;5071122;28;20225;-63
2021/09/07 12:16:03;;;;;;;12.83;8.83;;;23.90;99.90;;;;;;5071081;28;20270;-63
2021/09/07 12:18:33;;;;;;;12.10;8.27;;;23.90;99.90;;;;;;5071282;28;20231;-63
2021/09/07 12:21:16;;;;;;;14.97;9.43;;;23.70;99.90;;;;;;5071290;28;20209;-65
2021/09/07 12:23:45;;;;;;;11.47;8.77;;;23.80;99.90;;;;;;5070482;28;20257;-65
2021/09/07 12:26:13;;;;;;;14.57;9.50;;;23.80;99.90;;;;;;5070919;28;20208;-65
2021/09/07 12:28:40;;;;;;;16.57;9.23;;;23.60;99.90;;;;;;5071347;28;20208;-65
2021/09/07 12:31:19;;;;;;;12.93;9.60;;;23.80;99.90;;;;;;5071283;28;20221;-65
2021/09/07 12:33:49;;;;;;;12.30;8.87;;;23.90;99.90;;;;;;5070826;28;20221;-65
2021/09/07 12:36:20;;;;;;;13.00;9.67;;;24.10;99.90;;;;;;5070974;28;20847;-64
2021/09/07 12:38:47;;;;;;;13.67;9.30;;;24.10;99.90;;;;;;5070909;28;20254;-64
2021/09/07 12:41:16;;;;;;;14.17;9.47;;;24.10;99.90;;;;;;5071381;28;20259;-64
2021/09/07 12:43:46;;;;;;;12.40;9.10;;;24.20;99.90;;;;;;5070832;28;20232;-65
2021/09/07 12:46:15;;;;;;;11.73;9.10;;;24.40;99.90;;;;;;5071079;28;20255;-66
2021/09/07 12:48:44;;;;;;;13.97;9.33;;;24.30;99.90;;;;;;5071198;28;20201;-64